Terminal Aerodrome Forecast
Issued by NWS Blacksburg, VA

Home | Current Version | Previous Version | Text Only | Print | Product List | Glossary On
Versions: 1 2 3 4 5 6 7 8 9 10 11 12 13 14 15
000
FTUS41 KRNK 272346
TAFDAN
TAF
KDAN 272346Z 2800/2824 25004KT P6SM VCTS SCT045CB BKN110
     FM280200 00000KT P6SM SCT080 BKN250
     FM280900 00000KT 4SM BR SCT100
     FM281300 27004KT P6SM SCT050
     FM282000 24007KT P6SM VCTS BKN050CB=

USA.gov is the U.S. government's official web portal to all federal, state and local government web resources and services.